createdAt,value
2023-10-10T00:01:12.439Z,98032.59
2023-10-10T00:03:46.754Z,98040.05
2023-10-10T00:06:35.376Z,98038.53
2023-10-10T00:15:16.920Z,98049.48
2023-10-10T00:18:06.067Z,98040.94
2023-10-10T00:20:42.742Z,98042.37
2023-10-10T00:23:31.719Z,98045.13
2023-10-10T00:26:21.143Z,98040.79
2023-10-10T00:29:10.368Z,98048.56
2023-10-10T00:31:46.628Z,98059.45
2023-10-10T00:34:36.047Z,98052.86
2023-10-10T00:37:11.641Z,98053.52
2023-10-10T00:40:01.839Z,98052.03
2023-10-10T00:57:48.134Z,98065.38
2023-10-10T01:00:37.005Z,98071.58
2023-10-10T01:03:24.849Z,98071.58
2023-10-10T01:06:17.537Z,98081.10
2023-10-10T01:08:57.540Z,98077.40
2023-10-10T01:11:44.916Z,98077.74
2023-10-10T01:14:20.408Z,98086.90
2023-10-10T01:16:55.924Z,98090.39
2023-10-10T01:19:45.236Z,98084.56
2023-10-10T01:22:25.914Z,98057.30
2023-10-10T01:25:35.294Z,98087.97
2023-10-10T01:28:27.750Z,98094.87
2023-10-10T01:31:02.876Z,98096.30
2023-10-10T01:33:51.165Z,98090.60
2023-10-10T01:36:40.125Z,98094.01
2023-10-10T01:39:23.329Z,98098.09
2023-10-10T01:42:12.874Z,98093.20
2023-10-10T01:44:46.249Z,98095.59
2023-10-10T01:47:35.331Z,98089.91
2023-10-10T01:50:12.720Z,98095.67
2023-10-10T01:53:00.568Z,98101.09
2023-10-10T01:55:48.893Z,98104.53
2023-10-10T01:58:38.506Z,98101.90
2023-10-10T02:01:17.519Z,98109.36
2023-10-10T02:04:07.832Z,98116.53
2023-10-10T02:06:57.060Z,98112.19
2023-10-10T02:09:32.003Z,98105.07
2023-10-10T02:12:12.303Z,98105.05
2023-10-10T02:14:59.827Z,98113.73
2023-10-10T02:17:37.976Z,98109.09
2023-10-10T02:20:37.712Z,98113.60
2023-10-10T02:23:13.223Z,98116.77
2023-10-10T02:26:07.252Z,98119.56
2023-10-10T02:28:49.112Z,98120.97
2023-10-10T02:53:22.054Z,98127.13
2023-10-10T02:55:56.882Z,98133.67
2023-10-10T02:58:44.907Z,98126.97
2023-10-10T03:01:31.385Z,98136.07
2023-10-10T03:04:19.297Z,98126.86
2023-10-10T03:06:52.656Z,98125.63
2023-10-10T03:09:42.022Z,98150.81
2023-10-10T03:12:17.348Z,98143.64
2023-10-10T03:15:07.077Z,98138.73
2023-10-10T03:18:08.142Z,98145.57
2023-10-10T03:20:51.547Z,98146.98
2023-10-10T03:23:45.120Z,98150.75
2023-10-10T03:26:22.582Z,98153.89
2023-10-10T03:29:11.781Z,98146.38
2023-10-10T03:31:47.198Z,98149.53
2023-10-10T03:34:36.362Z,98154.92
2023-10-10T03:37:32.667Z,98157.41
2023-10-10T03:40:12.292Z,98164.00
2023-10-10T03:43:17.548Z,98164.31
2023-10-10T03:46:08.240Z,98155.45
2023-10-10T03:53:38.378Z,98161.61
2023-10-10T03:56:34.384Z,98176.71
2023-10-10T03:59:39.778Z,98186.41
2023-10-10T04:02:30.528Z,98192.92
2023-10-10T04:05:36.106Z,98188.15
2023-10-10T04:08:27.086Z,98200.19
2023-10-10T04:11:32.891Z,98197.72
2023-10-10T04:14:34.120Z,98202.98
2023-10-10T04:17:39.238Z,98196.19
2023-10-10T04:20:44.688Z,98207.28
2023-10-10T04:23:35.288Z,98206.05
2023-10-10T04:26:57.107Z,98208.66
2023-10-10T04:30:02.491Z,98211.14
2023-10-10T04:32:53.487Z,98217.83
2023-10-10T04:35:58.725Z,98215.62
2023-10-10T04:38:49.672Z,98227.59
2023-10-10T04:41:54.818Z,98230.09
2023-10-10T04:44:48.588Z,98240.47
2023-10-10T04:47:53.959Z,98233.63
2023-10-10T04:51:15.533Z,98234.45
2023-10-10T04:54:20.642Z,98244.44
2023-10-10T04:57:11.950Z,98257.22
2023-10-10T05:00:17.257Z,98242.88
2023-10-10T05:03:22.805Z,98256.33
2023-10-10T05:06:16.540Z,98263.57
2023-10-10T05:09:21.645Z,98269.72
2023-10-10T05:12:15.024Z,98269.50
2023-10-10T05:15:20.074Z,98268.03
2023-10-10T05:18:10.717Z,98267.59
2023-10-10T05:21:15.895Z,98274.65
2023-10-10T05:23:49.887Z,98288.00
2023-10-10T05:26:40.038Z,98281.45
2023-10-10T05:29:13.213Z,98282.05
2023-10-10T05:32:01.208Z,98292.80
2023-10-10T05:34:35.384Z,98290.89
2023-10-10T05:37:22.748Z,98287.05
2023-10-10T05:39:59.380Z,98292.74
2023-10-10T05:42:46.736Z,98304.09
2023-10-10T05:45:19.971Z,98305.45
2023-10-10T05:48:08.212Z,98309.19
2023-10-10T05:50:42.324Z,98300.30
2023-10-10T05:53:31.653Z,98308.39
2023-10-10T05:56:20.374Z,98315.35
2023-10-10T05:58:55.186Z,98315.20
2023-10-10T06:01:42.824Z,98313.03
2023-10-10T06:04:16.924Z,98309.44
2023-10-10T06:07:04.840Z,98317.54
2023-10-10T06:09:39.843Z,98313.12
2023-10-10T06:12:28.633Z,98317.63
2023-10-10T06:15:03.824Z,98322.61
2023-10-10T06:17:52.833Z,98323.80
2023-10-10T06:20:58.065Z,98327.20
2023-10-10T06:23:20.139Z,98334.72
2023-10-10T06:26:08.636Z,98341.94
2023-10-10T06:28:58.478Z,98332.78
2023-10-10T06:31:46.851Z,98337.94
2023-10-10T06:34:24.184Z,98344.48
2023-10-10T06:37:12.097Z,98330.38
2023-10-10T06:39:56.118Z,98344.79
2023-10-10T06:42:46.696Z,98336.44
2023-10-10T06:45:21.563Z,98345.52
2023-10-10T06:48:10.811Z,98361.91
2023-10-10T06:50:58.373Z,98348.96
2023-10-10T06:53:36.927Z,98370.04
2023-10-10T06:56:27.556Z,98366.91
2023-10-10T06:59:18.019Z,98367.72
2023-10-10T07:01:51.524Z,98370.04
2023-10-10T07:04:39.586Z,98367.04
2023-10-10T07:07:27.810Z,98369.71
2023-10-10T07:10:00.996Z,98376.40
2023-10-10T07:12:48.830Z,98375.05
2023-10-10T07:15:22.999Z,98373.98
2023-10-10T07:18:13.160Z,98375.11
2023-10-10T07:21:08.475Z,98386.93
2023-10-10T07:24:06.686Z,98381.45
2023-10-10T07:27:02.345Z,98384.04
2023-10-10T07:30:03.454Z,98378.16
2023-10-10T07:32:53.120Z,98383.47
2023-10-10T07:35:48.250Z,98391.36
2023-10-10T07:38:30.300Z,98389.41
2023-10-10T07:41:43.719Z,98395.63
2023-10-10T07:44:32.442Z,98405.95
2023-10-10T07:47:33.636Z,98403.62
2023-10-10T07:50:22.846Z,98414.95
2023-10-10T07:53:14.825Z,98412.25
2023-10-10T07:55:56.256Z,98409.47
2023-10-10T07:58:53.207Z,98415.95
2023-10-10T08:01:40.424Z,98414.95
2023-10-10T08:04:24.224Z,98415.95
2023-10-10T08:07:16.609Z,98417.28
2023-10-10T08:09:53.646Z,98420.67
2023-10-10T08:13:01.146Z,98404.11
2023-10-10T08:15:34.614Z,98425.46
2023-10-10T08:18:33.744Z,98414.72
2023-10-10T08:21:23.691Z,98420.20
2023-10-10T08:23:59.410Z,98422.00
2023-10-10T08:26:46.901Z,98442.16
2023-10-10T08:29:22.095Z,98436.05
2023-10-10T08:32:10.344Z,98422.63
2023-10-10T08:34:44.151Z,98436.14
2023-10-10T08:37:33.194Z,98440.52
2023-10-10T08:40:10.314Z,98434.25
2023-10-10T08:42:57.729Z,98442.80
2023-10-10T08:45:35.319Z,98449.77
2023-10-10T08:48:24.880Z,98450.70
2023-10-10T08:51:01.477Z,98446.47
2023-10-10T08:53:52.187Z,98444.63
2023-10-10T08:56:27.251Z,98445.05
2023-10-10T08:59:17.414Z,98446.62
2023-10-10T09:01:51.627Z,98444.39
2023-10-10T09:04:38.873Z,98456.86
2023-10-10T09:07:15.153Z,98471.69
2023-10-10T09:10:06.923Z,98469.09
2023-10-10T09:12:40.630Z,98473.64
2023-10-10T09:15:20.902Z,98463.41
2023-10-10T09:18:22.726Z,98468.39
2023-10-10T09:20:58.494Z,98472.31
2023-10-10T09:23:47.840Z,98456.56
2023-10-10T09:26:31.196Z,98472.91
2023-10-10T09:29:34.069Z,98469.22
2023-10-10T09:32:07.541Z,98473.00
2023-10-10T09:34:56.041Z,98484.48
2023-10-10T09:37:34.686Z,98491.58
2023-10-10T09:40:13.640Z,98472.17
2023-10-10T09:43:07.821Z,98488.19
2023-10-10T09:46:10.925Z,98486.30
2023-10-10T09:49:20.541Z,98477.43
2023-10-10T09:52:34.075Z,98489.08
2023-10-10T09:55:40.817Z,98501.95
2023-10-10T09:58:21.041Z,98486.40
2023-10-10T10:01:17.544Z,98489.95
2023-10-10T10:04:05.827Z,98497.79
2023-10-10T10:10:17.834Z,98494.08
2023-10-10T10:13:20.196Z,98496.53
2023-10-10T10:16:41.434Z,98502.27
2023-10-10T10:19:29.974Z,98491.27
2023-10-10T10:22:10.316Z,98494.86
2023-10-10T10:25:23.666Z,98493.95
2023-10-10T10:28:22.460Z,98491.52
2023-10-10T10:31:32.125Z,98499.95
2023-10-10T10:34:28.463Z,98494.51
2023-10-10T10:37:24.841Z,98502.94
2023-10-10T10:40:17.777Z,98523.41
2023-10-10T10:43:05.398Z,98523.44
2023-10-10T10:45:43.986Z,98527.73
2023-10-10T10:48:35.563Z,98526.44
2023-10-10T10:51:26.755Z,98539.36
2023-10-10T10:56:00.807Z,98529.95
2023-10-10T10:58:33.947Z,98530.34
2023-10-10T11:01:23.033Z,98530.16
2023-10-10T11:03:57.448Z,98532.16
2023-10-10T11:07:01.981Z,98525.94
2023-10-10T11:09:37.228Z,98531.59
2023-10-10T11:12:33.550Z,98515.50
2023-10-10T11:15:23.381Z,98538.25
2023-10-10T11:17:58.663Z,98538.10
2023-10-10T11:20:58.848Z,98539.22
2023-10-10T11:24:14.716Z,98554.94
2023-10-10T11:26:48.515Z,98543.64
2023-10-10T11:29:41.719Z,98554.93
2023-10-10T11:32:17.576Z,98547.09
2023-10-10T11:35:15.271Z,98570.15
2023-10-10T11:37:52.136Z,98574.13
2023-10-10T11:40:40.685Z,98573.22
2023-10-10T11:43:29.637Z,98570.45
2023-10-10T11:46:03.517Z,98576.19
2023-10-10T11:48:53.050Z,98583.59
2023-10-10T11:51:37.765Z,98582.03
2023-10-10T11:54:28.770Z,98558.34
2023-10-10T11:57:16.657Z,98577.52
2023-10-10T11:59:50.681Z,98599.86
2023-10-10T12:02:45.578Z,98624.92
2023-10-10T12:05:46.919Z,98632.53
2023-10-10T12:08:38.127Z,98634.77
2023-10-10T12:11:15.998Z,98630.05
2023-10-10T12:14:04.310Z,98630.94
2023-10-10T12:16:37.780Z,98633.94
2023-10-10T12:19:25.245Z,98637.17
2023-10-10T12:22:01.789Z,98650.47
2023-10-10T12:24:49.257Z,98645.19
2023-10-10T12:27:27.077Z,98648.24
2023-10-10T12:30:17.532Z,98650.98
2023-10-10T12:32:50.855Z,98645.79
2023-10-10T12:35:39.026Z,98642.38
2023-10-10T12:38:12.892Z,98624.86
2023-10-10T12:41:00.270Z,98637.12
2023-10-10T12:43:34.148Z,98624.21
2023-10-10T12:46:22.964Z,98640.97
2023-10-10T12:48:56.415Z,98644.46
2023-10-10T12:51:46.341Z,98639.22
2023-10-10T12:54:36.885Z,98652.23
2023-10-10T12:57:11.655Z,98659.53
2023-10-10T13:00:00.787Z,98656.11
2023-10-10T13:02:34.958Z,98662.19
2023-10-10T13:05:24.642Z,98672.44
2023-10-10T13:08:00.611Z,98676.15
2023-10-10T13:10:50.293Z,98680.88
2023-10-10T13:13:30.283Z,98668.09
2023-10-10T13:16:26.073Z,98683.94
2023-10-10T13:19:00.352Z,98691.91
2023-10-10T13:21:48.637Z,98689.91
2023-10-10T13:24:22.104Z,98700.51
2023-10-10T13:27:30.197Z,98701.91
2023-10-10T13:30:03.660Z,98709.05
2023-10-10T13:32:52.530Z,98705.56
2023-10-10T13:35:25.814Z,98712.68
2023-10-10T13:38:14.963Z,98720.98
2023-10-10T13:40:50.587Z,98732.03
2023-10-10T13:43:40.190Z,98730.11
2023-10-10T13:46:14.459Z,98743.19
2023-10-10T13:49:03.863Z,98730.70
2023-10-10T13:51:55.377Z,98745.75
2023-10-10T13:57:24.890Z,98759.39
2023-10-10T13:59:58.249Z,98757.35
2023-10-10T14:02:46.769Z,98760.91
2023-10-10T14:05:21.396Z,98757.80
2023-10-10T14:08:12.710Z,98756.14
2023-10-10T14:11:02.537Z,98756.73
2023-10-10T14:13:36.029Z,98774.25
2023-10-10T14:16:25.922Z,98762.98
2023-10-10T14:19:00.759Z,98782.14
2023-10-10T14:21:36.696Z,98798.06
2023-10-10T14:24:24.151Z,98792.14
2023-10-10T14:26:58.935Z,98795.00
2023-10-10T14:29:46.447Z,98812.06
2023-10-10T14:32:35.092Z,98813.24
2023-10-10T14:35:12.245Z,98815.86
2023-10-10T14:37:58.288Z,98824.80
2023-10-10T14:40:38.212Z,98827.30
2023-10-10T14:43:13.237Z,98832.70
2023-10-10T14:46:03.157Z,98835.43
2023-10-10T14:48:36.503Z,98842.70
2023-10-10T14:51:23.991Z,98843.05
2023-10-10T14:54:13.942Z,98842.16
2023-10-10T14:56:48.204Z,98858.91
2023-10-10T14:59:37.981Z,98853.75
2023-10-10T15:02:13.663Z,98849.08
2023-10-10T15:05:02.870Z,98865.62
2023-10-10T15:07:50.275Z,98852.61
2023-10-10T15:10:27.979Z,98868.43
2023-10-10T15:13:17.485Z,98863.45
2023-10-10T15:15:54.034Z,98869.77
2023-10-10T15:18:43.466Z,98866.67
2023-10-10T15:21:34.193Z,98869.98
2023-10-10T15:24:11.482Z,98896.92
2023-10-10T15:27:01.348Z,98898.84
2023-10-10T15:29:34.891Z,98900.89
2023-10-10T15:32:22.380Z,98910.57
2023-10-10T15:34:55.600Z,98908.41
2023-10-10T15:37:44.148Z,98922.42
2023-10-10T15:40:22.769Z,98925.35
2023-10-10T15:42:58.116Z,98931.27
2023-10-10T15:45:49.258Z,98928.52
2023-10-10T15:48:26.761Z,98934.61
2023-10-10T15:51:16.038Z,98934.51
2023-10-10T15:54:05.386Z,98933.05
2023-10-10T15:56:39.354Z,98935.38
2023-10-10T15:59:26.776Z,98928.28
2023-10-10T16:02:15.836Z,98936.10
2023-10-10T16:05:04.375Z,98943.92
2023-10-10T16:07:37.593Z,98932.36
2023-10-10T16:10:25.502Z,98947.41
2023-10-10T16:13:13.448Z,98939.41
2023-10-10T16:15:46.594Z,98953.16
2023-10-10T16:18:34.650Z,98955.81
2023-10-10T16:21:09.930Z,98963.64
2023-10-10T16:23:57.428Z,98969.84
2023-10-10T16:26:30.717Z,98970.00
2023-10-10T16:29:21.020Z,98972.81
2023-10-10T16:31:54.950Z,98969.67
2023-10-10T16:34:44.796Z,98977.45
2023-10-10T16:37:19.680Z,98989.84
2023-10-10T16:40:11.406Z,98981.55
2023-10-10T16:42:58.855Z,98988.42
2023-10-10T16:45:48.318Z,98991.81
2023-10-10T16:48:21.704Z,99001.67
2023-10-10T16:51:10.564Z,98997.57
2023-10-10T16:53:58.240Z,99002.59
2023-10-10T16:56:32.674Z,98992.76
2023-10-10T16:59:20.150Z,99011.97
2023-10-10T17:01:53.423Z,99009.62
2023-10-10T17:04:41.498Z,99017.69
2023-10-10T17:07:15.043Z,99029.05
2023-10-10T17:10:05.210Z,99021.54
2023-10-10T17:12:53.254Z,99018.05
2023-10-10T17:15:40.840Z,99029.05
2023-10-10T17:18:15.305Z,99037.92
2023-10-10T17:21:03.525Z,99040.72
2023-10-10T17:23:52.061Z,99042.37
2023-10-10T17:26:25.949Z,99040.05
2023-10-10T17:29:14.154Z,99048.97
2023-10-10T17:32:02.106Z,99049.64
2023-10-10T17:34:35.423Z,99058.50
2023-10-10T17:37:24.181Z,99051.98
2023-10-10T17:39:58.264Z,99064.28
2023-10-10T17:42:48.807Z,99069.80
2023-10-10T17:45:22.795Z,99067.55
2023-10-10T17:48:11.019Z,99053.61
2023-10-10T17:50:46.752Z,99073.23
2023-10-10T17:53:34.286Z,99078.75
2023-10-10T17:56:25.161Z,99078.58
2023-10-10T17:58:58.672Z,99080.63
2023-10-10T18:01:46.241Z,99081.95
2023-10-10T18:04:35.483Z,99093.00
2023-10-10T18:07:10.971Z,99091.54
2023-10-10T18:09:58.342Z,99091.92
2023-10-10T18:12:32.001Z,99092.17
2023-10-10T18:15:20.668Z,99103.64
2023-10-10T18:18:11.021Z,99104.39
2023-10-10T18:20:48.984Z,99103.79
2023-10-10T18:23:23.736Z,99109.67
2023-10-10T18:26:20.755Z,99112.64
2023-10-10T18:28:58.450Z,99116.30
2023-10-10T18:31:45.897Z,99111.56
2023-10-10T18:34:33.964Z,99120.11
2023-10-10T18:37:23.516Z,99120.11
2023-10-10T18:39:58.139Z,99124.91
2023-10-10T18:42:48.732Z,99121.25
2023-10-10T18:45:22.204Z,99131.05
2023-10-10T18:48:12.223Z,99125.71
2023-10-10T18:50:45.516Z,99126.17
2023-10-10T18:53:18.772Z,99136.52
2023-10-10T18:56:07.274Z,99132.55
2023-10-10T18:58:54.830Z,99133.20
2023-10-10T19:01:29.696Z,99139.31
2023-10-10T19:04:19.048Z,99138.91
2023-10-10T19:06:54.297Z,99148.57
2023-10-10T19:09:44.036Z,99152.28
2023-10-10T19:12:31.879Z,99152.16
2023-10-10T19:15:06.087Z,99149.92
2023-10-10T19:17:57.285Z,99150.34
2023-10-10T19:20:36.001Z,99159.18
2023-10-10T19:23:24.337Z,99159.59
2023-10-10T19:25:59.141Z,99165.80
2023-10-10T19:28:50.348Z,99169.74
2023-10-10T19:31:41.616Z,99173.98
2023-10-10T19:34:29.370Z,99165.41
2023-10-10T19:37:03.918Z,99162.94
2023-10-10T19:39:51.377Z,99170.33
2023-10-10T19:42:26.494Z,99160.38
2023-10-10T19:45:25.177Z,99162.55
2023-10-10T19:48:00.882Z,99173.95
2023-10-10T19:50:50.885Z,99179.45
2023-10-10T19:53:25.851Z,99184.77
2023-10-10T19:56:01.244Z,99187.28
2023-10-10T19:58:49.502Z,99181.72
2023-10-10T20:01:22.962Z,99190.58
2023-10-10T20:03:57.487Z,99190.35
2023-10-10T20:06:31.607Z,99193.66
2023-10-10T20:09:20.652Z,99198.42
2023-10-10T20:12:10.992Z,99199.16
2023-10-10T20:14:44.584Z,99202.77
2023-10-10T20:17:33.923Z,99203.99
2023-10-10T20:20:21.506Z,99211.50
2023-10-10T20:22:57.481Z,99213.39
2023-10-10T20:25:45.021Z,99213.97
2023-10-10T20:28:18.205Z,99221.90
2023-10-10T20:31:09.803Z,99216.40
2023-10-10T20:33:43.382Z,99213.26
2023-10-10T20:36:30.855Z,99210.30
2023-10-10T20:39:07.561Z,99223.36
2023-10-10T20:41:55.599Z,99231.67
2023-10-10T20:44:28.813Z,99220.86
2023-10-10T20:47:16.265Z,99216.53
2023-10-10T20:49:49.609Z,99227.34
2023-10-10T20:52:40.481Z,99214.44
2023-10-10T20:55:16.704Z,99218.30
2023-10-10T20:58:09.072Z,99215.59
2023-10-10T21:00:59.064Z,99219.16
2023-10-10T21:03:34.945Z,99223.23
2023-10-10T21:06:23.655Z,99231.86
2023-10-10T21:09:00.971Z,99226.43
2023-10-10T21:14:46.192Z,99227.50
2023-10-10T21:17:28.933Z,99234.66
2023-10-10T21:20:23.969Z,99227.44
2023-10-10T21:23:12.755Z,99227.28
2023-10-10T21:25:46.366Z,99234.20
2023-10-10T21:28:34.129Z,99238.03
2023-10-10T21:31:21.852Z,99243.01
2023-10-10T21:34:12.852Z,99262.56
2023-10-10T21:36:47.782Z,99250.66
2023-10-10T21:39:36.490Z,99245.81
2023-10-10T21:42:25.970Z,99254.19
2023-10-10T21:44:59.395Z,99269.84
2023-10-10T21:47:48.597Z,99264.97
2023-10-10T21:50:40.333Z,99264.03
2023-10-10T21:53:31.052Z,99265.80
2023-10-10T21:56:20.308Z,99265.13
2023-10-10T21:59:10.020Z,99280.92
2023-10-10T22:01:57.442Z,99278.05
2023-10-10T22:04:31.590Z,99285.45
2023-10-10T22:07:29.770Z,99288.83
2023-10-10T22:10:15.138Z,99280.45
2023-10-10T22:13:03.440Z,99287.28
2023-10-10T22:15:50.782Z,99282.08
2023-10-10T22:18:38.380Z,99293.16
2023-10-10T22:21:27.837Z,99294.86
2023-10-10T22:24:15.905Z,99301.00
2023-10-10T22:27:05.204Z,99297.63
2023-10-10T22:29:52.648Z,99300.27
2023-10-10T22:32:28.280Z,99309.02
2023-10-10T22:35:19.696Z,99309.61
2023-10-10T22:37:56.729Z,99316.89
2023-10-10T22:40:46.522Z,99313.92
2023-10-10T22:43:37.440Z,99324.94
2023-10-10T22:46:10.971Z,99326.80
2023-10-10T22:48:59.117Z,99322.03
2023-10-10T22:51:47.460Z,99317.69
2023-10-10T22:54:21.145Z,99313.78
2023-10-10T22:57:09.479Z,99316.49
2023-10-10T22:59:56.886Z,99313.41
2023-10-10T23:02:31.704Z,99322.47
2023-10-10T23:05:21.379Z,99324.06
2023-10-10T23:07:57.139Z,99324.50
2023-10-10T23:10:31.544Z,99326.27
2023-10-10T23:13:19.063Z,99318.31
2023-10-10T23:16:06.748Z,99314.14
2023-10-10T23:18:40.003Z,99310.98
2023-10-10T23:21:28.712Z,99314.20
2023-10-10T23:24:02.321Z,99312.75
2023-10-10T23:26:51.829Z,99313.34
2023-10-10T23:30:00.638Z,99313.47
2023-10-10T23:32:34.369Z,99317.95
2023-10-10T23:35:23.385Z,99316.84
2023-10-10T23:38:00.747Z,99321.49
2023-10-10T23:40:50.301Z,99322.27
2023-10-10T23:43:38.815Z,99327.55
2023-10-10T23:46:26.551Z,99327.70
2023-10-10T23:48:59.778Z,99330.59
2023-10-10T23:51:47.226Z,99320.13
2023-10-10T23:54:36.437Z,99329.67
2023-10-10T23:57:24.068Z,99335.04
2023-10-10T23:59:57.305Z,99339.60
